Time;durP1;ratioP1;P1;durP2;ratioP2;P2;SDS_P1;SDS_P2;PMS_P1;PMS_P2;Temp;Humidity;BMP_temperature;BMP_pressure;BME280_temperature;BME280_humidity;BME280_pressure;Samples;Min_cycle;Max_cycle;Signal;HPM_P1;HPM_P2
2022/05/25 00:02:01;;;;;;;14.00;2.47;;;39.40;23.40;;;;;;5026730;28;20114;-68
2022/05/25 00:04:28;;;;;;;14.27;3.20;;;39.30;24.10;;;;;;5010327;28;20038;-70
2022/05/25 00:06:54;;;;;;;15.10;2.40;;;39.20;23.90;;;;;;5020988;28;20030;-70
2022/05/25 00:09:21;;;;;;;19.23;2.38;;;39.30;24.30;;;;;;5034899;28;20033;-71
2022/05/25 00:11:48;;;;;;;24.88;3.38;;;39.30;23.30;;;;;;5016870;28;20040;-70
2022/05/25 00:14:14;;;;;;;16.58;2.80;;;39.20;23.40;;;;;;5033444;28;20137;-70
2022/05/25 00:16:40;;;;;;;15.38;2.80;;;39.10;23.60;;;;;;5051635;28;20107;-69
2022/05/25 00:21:52;;;;;;;16.20;2.75;;;39.10;23.50;;;;;;5032919;28;20040;-68
2022/05/25 00:24:18;;;;;;;12.77;2.20;;;39.00;23.60;;;;;;5032474;28;20037;-67
2022/05/25 00:26:44;;;;;;;13.55;2.35;;;39.00;23.10;;;;;;5033330;28;20051;-71
2022/05/25 00:29:11;;;;;;;9.35;2.47;;;38.90;23.70;;;;;;5029966;28;20032;-69
2022/05/25 00:31:37;;;;;;;12.77;2.50;;;38.90;23.30;;;;;;5032721;28;20038;-71
2022/05/25 00:34:04;;;;;;;14.38;2.72;;;38.70;23.00;;;;;;5050484;28;20072;-69
2022/05/25 00:36:30;;;;;;;70.93;6.03;;;38.70;23.20;;;;;;5016580;28;20121;-66
2022/05/25 00:38:56;;;;;;;25.17;2.78;;;38.90;23.80;;;;;;5032373;28;20049;-69
2022/05/25 00:41:25;;;;;;;14.90;2.85;;;38.70;23.60;;;;;;5032088;28;20052;-65
2022/05/25 00:43:51;;;;;;;19.23;3.42;;;38.70;23.10;;;;;;5030551;28;20129;-69
2022/05/25 00:46:20;;;;;;;15.50;2.40;;;38.80;23.40;;;;;;5031512;28;20053;-66
2022/05/25 00:49:10;;;;;;;21.52;3.55;;;38.70;23.40;;;;;;5029686;28;20025;-67
2022/05/25 00:52:01;;;;;;;19.63;2.75;;;38.60;22.80;;;;;;5032170;28;20028;-69
2022/05/25 00:54:34;;;;;;;23.15;3.20;;;38.50;23.20;;;;;;5030349;28;20082;-68
2022/05/25 00:57:06;;;;;;;17.92;2.72;;;38.50;23.50;;;;;;5049551;28;20521;-70
2022/05/25 00:59:58;;;;;;;30.55;3.20;;;38.50;23.10;;;;;;5050879;28;20046;-65
2022/05/25 01:02:27;;;;;;;28.63;3.25;;;38.40;24.20;;;;;;5017953;28;20599;-65
2022/05/25 01:04:54;;;;;;;17.42;2.45;;;38.30;24.00;;;;;;5049372;28;20055;-66
2022/05/25 01:07:39;;;;;;;20.17;3.03;;;38.20;23.20;;;;;;5047509;28;20110;-66
2022/05/25 01:10:42;;;;;;;18.40;3.17;;;38.10;23.20;;;;;;5028191;28;20104;-67
2022/05/25 01:13:21;;;;;;;25.17;3.45;;;38.00;23.10;;;;;;5027382;28;20079;-70
2022/05/25 01:16:02;;;;;;;16.85;2.83;;;37.80;23.40;;;;;;5045912;28;20039;-64
2022/05/25 01:18:49;;;;;;;19.83;3.35;;;37.80;23.20;;;;;;5050047;28;20055;-66
2022/05/25 01:21:18;;;;;;;;;;;37.60;23.20;;;;;;5033419;28;20458;-66
2022/05/25 01:24:06;;;;;;;18.77;2.45;;;37.50;22.60;;;;;;5031642;28;19967;-63
2022/05/25 01:26:52;;;;;;;19.13;2.70;;;37.40;22.70;;;;;;5031001;28;20051;-68
2022/05/25 01:29:34;;;;;;;22.92;2.65;;;37.30;23.10;;;;;;5030729;28;20444;-68
2022/05/25 01:32:07;;;;;;;17.55;2.80;;;37.20;22.60;;;;;;5029574;28;20134;-70
2022/05/25 01:34:40;;;;;;;36.65;3.38;;;37.00;23.00;;;;;;5047646;28;20060;-68
2022/05/25 01:37:24;;;;;;;17.42;2.55;;;37.00;23.20;;;;;;5028635;28;20056;-69
2022/05/25 01:40:34;;;;;;;22.77;2.85;;;36.90;22.70;;;;;;5029766;28;20091;-69
2022/05/25 01:43:19;;;;;;;18.98;2.63;;;36.90;22.90;;;;;;5006628;28;20088;-67
2022/05/25 01:45:51;;;;;;;18.00;2.75;;;37.10;22.50;;;;;;5028727;28;20108;-67
2022/05/25 01:48:20;;;;;;;11.40;2.28;;;37.30;22.50;;;;;;5010946;28;20045;-67
2022/05/25 01:51:01;;;;;;;14.68;2.50;;;37.20;22.00;;;;;;5049266;28;20052;-70
2022/05/25 01:53:37;;;;;;;22.20;2.72;;;37.20;22.40;;;;;;5046357;28;20124;-64
2022/05/25 01:56:07;;;;;;;21.92;2.50;;;36.90;22.50;;;;;;5028878;28;20598;-66
2022/05/25 01:58:38;;;;;;;39.50;3.28;;;36.80;23.20;;;;;;5029686;28;20047;-68
2022/05/25 02:01:07;;;;;;;22.23;2.42;;;36.50;23.60;;;;;;5043581;28;20483;-66
2022/05/25 02:06:38;;;;;;;25.50;3.10;;;36.20;23.70;;;;;;5054183;28;20431;-64
2022/05/25 02:09:59;;;;;;;17.30;3.03;;;36.00;24.10;;;;;;5028488;28;20084;-65
2022/05/25 02:12:46;;;;;;;23.67;3.33;;;35.90;23.90;;;;;;4970149;28;20055;-66
2022/05/25 02:15:12;;;;;;;;;;;35.70;24.00;;;;;;5022590;28;20522;-64
2022/05/25 02:18:03;;;;;;;33.17;2.72;;;35.60;24.30;;;;;;5029897;28;20326;-66
2022/05/25 02:20:56;;;;;;;11.00;2.10;;;35.50;24.10;;;;;;5036164;28;20082;-64
2022/05/25 02:24:00;;;;;;;32.78;2.97;;;35.40;24.30;;;;;;5035074;28;20064;-66
2022/05/25 02:26:39;;;;;;;19.52;3.00;;;35.30;24.20;;;;;;5028683;28;20072;-64
2022/05/25 02:29:36;;;;;;;25.25;3.22;;;35.20;24.10;;;;;;5036971;28;20050;-68
2022/05/25 02:32:26;;;;;;;28.40;4.28;;;35.10;24.40;;;;;;4971993;28;20097;-65
2022/05/25 02:34:54;;;;;;;34.13;5.53;;;34.90;24.10;;;;;;4957905;28;20157;-68
2022/05/25 02:37:24;;;;;;;27.00;5.13;;;34.90;24.50;;;;;;4939767;28;20090;-67
2022/05/25 02:39:52;;;;;;;43.00;5.68;;;34.80;24.00;;;;;;4956022;28;20535;-68
2022/05/25 02:42:19;;;;;;;36.47;7.47;;;34.80;24.30;;;;;;4970370;28;20104;-67
2022/05/25 02:44:45;;;;;;;32.35;6.25;;;34.70;24.30;;;;;;4956308;28;20447;-69
2022/05/25 02:47:12;;;;;;;25.92;5.43;;;34.70;24.40;;;;;;4954298;28;20085;-66
2022/05/25 02:49:39;;;;;;;28.30;5.30;;;34.60;24.70;;;;;;4952170;28;20584;-69
2022/05/25 02:52:08;;;;;;;38.15;5.10;;;34.60;24.90;;;;;;4960589;28;20063;-64
2022/05/25 02:54:35;;;;;;;21.55;4.82;;;34.50;25.00;;;;;;4939207;28;20060;-66
2022/05/25 02:57:02;;;;;;;50.38;5.88;;;34.40;25.20;;;;;;4969406;28;20076;-66
2022/05/25 02:59:28;;;;;;;92.20;6.25;;;34.30;25.50;;;;;;4972274;28;20101;-65
2022/05/25 03:01:55;;;;;;;71.47;7.07;;;34.30;25.50;;;;;;4968384;28;20118;-67
2022/05/25 03:04:22;;;;;;;21.48;3.28;;;34.20;25.70;;;;;;4953379;28;20064;-67
2022/05/25 03:06:48;;;;;;;27.05;4.43;;;34.10;25.70;;;;;;4951989;28;20073;-70
2022/05/25 03:09:15;;;;;;;41.30;4.50;;;34.00;25.80;;;;;;5038581;28;20098;-68
2022/05/25 03:11:41;;;;;;;24.83;3.90;;;34.00;26.10;;;;;;5016414;28;20525;-69
2022/05/25 03:14:08;;;;;;;30.77;3.65;;;33.80;26.00;;;;;;5049447;28;20492;-66
2022/05/25 03:16:36;;;;;;;46.25;4.03;;;33.80;26.40;;;;;;5047869;28;20114;-66
2022/05/25 03:19:03;;;;;;;39.10;4.70;;;33.70;26.40;;;;;;5033025;28;20122;-67
2022/05/25 03:21:29;;;;;;;22.02;3.42;;;33.70;26.60;;;;;;5033519;28;20086;-68
2022/05/25 03:23:55;;;;;;;27.70;3.90;;;33.60;26.90;;;;;;5033170;28;20068;-66
2022/05/25 03:26:22;;;;;;;18.25;3.17;;;33.50;27.30;;;;;;5050569;28;20093;-67
2022/05/25 03:28:48;;;;;;;18.73;3.40;;;33.40;27.60;;;;;;5036080;28;20073;-66
2022/05/25 03:31:15;;;;;;;22.83;3.10;;;33.30;28.00;;;;;;5034178;28;20066;-68
2022/05/25 03:33:43;;;;;;;21.73;2.95;;;33.20;28.40;;;;;;5033438;28;20156;-70
2022/05/25 03:36:10;;;;;;;27.13;2.92;;;33.10;28.80;;;;;;5032694;28;20069;-67
2022/05/25 03:38:36;;;;;;;27.38;3.60;;;33.00;29.10;;;;;;5032848;28;20151;-69
2022/05/25 03:41:03;;;;;;;24.13;4.10;;;32.90;29.40;;;;;;5030245;28;20531;-67
2022/05/25 03:43:35;;;;;;;27.00;3.72;;;32.80;29.70;;;;;;5031331;28;20069;-66
2022/05/25 03:46:02;;;;;;;34.08;4.15;;;32.70;30.00;;;;;;5032540;28;20396;-65
2022/05/25 03:48:28;;;;;;;26.38;4.57;;;32.70;30.20;;;;;;5030760;28;20181;-65
2022/05/25 03:50:54;;;;;;;31.92;3.92;;;32.50;30.20;;;;;;5031071;28;20534;-68
2022/05/25 03:53:21;;;;;;;35.30;4.95;;;32.50;30.40;;;;;;5033706;28;20160;-66
2022/05/25 03:55:48;;;;;;;30.58;4.20;;;32.30;30.50;;;;;;5031011;28;20066;-66
2022/05/25 03:58:14;;;;;;;44.28;4.22;;;32.30;30.80;;;;;;5000040;28;20474;-69
2022/05/25 04:00:41;;;;;;;30.85;4.65;;;32.20;30.70;;;;;;5049458;28;20078;-67
2022/05/25 04:03:10;;;;;;;45.35;4.68;;;32.20;30.90;;;;;;5032000;28;20616;-65
2022/05/25 04:05:37;;;;;;;31.05;4.45;;;32.00;30.80;;;;;;5048490;28;20088;-67
2022/05/25 04:08:03;;;;;;;38.20;4.45;;;31.90;30.60;;;;;;5035847;28;20176;-68
2022/05/25 04:10:30;;;;;;;35.67;4.20;;;31.90;30.40;;;;;;5036652;28;20192;-69
2022/05/25 04:12:56;;;;;;;35.45;4.00;;;31.80;30.50;;;;;;5031962;28;20196;-70
2022/05/25 04:15:25;;;;;;;35.88;4.35;;;31.80;30.30;;;;;;5028902;28;20508;-68
2022/05/25 04:17:52;;;;;;;41.22;4.60;;;31.70;30.00;;;;;;5030488;28;20452;-67
2022/05/25 04:20:19;;;;;;;49.35;4.15;;;31.70;30.00;;;;;;5032055;28;20083;-66
2022/05/25 04:22:46;;;;;;;32.67;3.55;;;31.60;29.80;;;;;;5049679;28;20091;-69
2022/05/25 04:25:17;;;;;;;37.08;3.63;;;31.50;29.50;;;;;;5032059;28;20154;-67
2022/05/25 04:27:44;;;;;;;31.85;3.65;;;31.50;29.40;;;;;;5031454;28;20159;-69
2022/05/25 04:30:14;;;;;;;43.33;4.35;;;31.40;29.30;;;;;;5030335;28;20066;-68
2022/05/25 04:32:41;;;;;;;24.80;3.08;;;31.30;29.00;;;;;;5036123;28;20164;-68
2022/05/25 04:35:08;;;;;;;28.25;3.17;;;31.30;28.90;;;;;;5049055;28;20083;-68
2022/05/25 04:37:49;;;;;;;26.63;3.00;;;31.20;28.80;;;;;;5048750;28;20075;-69
2022/05/25 04:40:37;;;;;;;22.00;2.92;;;31.20;28.70;;;;;;5031737;28;20520;-67
2022/05/25 04:43:08;;;;;;;26.65;2.92;;;31.10;28.50;;;;;;5047528;28;20092;-67
2022/05/25 04:45:37;;;;;;;41.75;3.63;;;31.10;28.50;;;;;;5032190;28;20148;-67
2022/05/25 04:48:03;;;;;;;33.28;4.25;;;31.00;28.50;;;;;;5031583;28;20091;-66
2022/05/25 04:50:34;;;;;;;32.97;3.58;;;30.90;28.30;;;;;;5030543;28;20087;-68
2022/05/25 04:53:02;;;;;;;36.33;3.83;;;30.90;28.40;;;;;;5032956;28;20075;-67
2022/05/25 04:58:36;;;;;;;26.17;3.90;;;30.80;28.10;;;;;;5049940;28;20101;-66
2022/05/25 05:01:05;;;;;;;44.03;4.43;;;30.80;28.20;;;;;;5031745;28;20088;-65
2022/05/25 05:03:31;;;;;;;38.17;4.13;;;30.70;28.10;;;;;;5032623;28;20206;-65
2022/05/25 05:05:58;;;;;;;32.05;4.03;;;30.70;28.10;;;;;;5050731;28;20146;-67
2022/05/25 05:08:26;;;;;;;24.02;4.50;;;30.70;28.20;;;;;;5031200;28;20089;-67
2022/05/25 05:10:53;;;;;;;30.75;3.88;;;30.60;28.30;;;;;;5015604;28;20159;-67
2022/05/25 05:13:20;;;;;;;35.25;4.22;;;30.60;28.60;;;;;;5031254;28;20432;-67
2022/05/25 05:15:49;;;;;;;29.90;3.03;;;30.60;28.60;;;;;;5048580;28;20693;-66
2022/05/25 05:18:17;;;;;;;39.88;3.78;;;30.50;28.40;;;;;;5034671;28;20832;-67
2022/05/25 05:20:44;;;;;;;16.52;3.47;;;30.50;28.50;;;;;;5021883;28;20227;-66
2022/05/25 05:23:11;;;;;;;26.38;4.03;;;30.40;28.60;;;;;;5031000;28;20088;-65
2022/05/25 05:25:38;;;;;;;33.50;3.22;;;30.40;28.70;;;;;;5050445;28;20063;-66
2022/05/25 05:28:17;;;;;;;31.73;3.22;;;30.30;28.70;;;;;;5015615;28;20089;-66
2022/05/25 05:30:53;;;;;;;33.92;3.75;;;30.30;28.60;;;;;;5030850;28;20559;-65
2022/05/25 05:33:20;;;;;;;19.60;3.40;;;30.20;28.70;;;;;;5030933;28;20163;-66
2022/05/25 05:35:51;;;;;;;32.60;3.75;;;30.20;28.70;;;;;;5030210;28;20654;-66
2022/05/25 05:38:19;;;;;;;34.08;3.95;;;30.20;28.70;;;;;;5047362;28;20075;-66
2022/05/25 05:40:46;;;;;;;26.13;3.22;;;30.10;28.50;;;;;;5030839;28;20072;-66
2022/05/25 05:43:13;;;;;;;24.90;2.90;;;30.10;29.00;;;;;;5031037;28;20104;-67
2022/05/25 05:45:43;;;;;;;26.92;3.10;;;30.00;29.00;;;;;;5032010;28;20076;-65
2022/05/25 05:48:14;;;;;;;29.65;3.28;;;30.00;28.70;;;;;;5032982;28;20072;-66
2022/05/25 05:50:42;;;;;;;29.50;3.95;;;30.00;28.70;;;;;;5047936;28;20085;-69
2022/05/25 05:53:11;;;;;;;30.45;3.35;;;30.00;28.70;;;;;;5030205;28;20073;-68
2022/05/25 05:55:39;;;;;;;27.38;3.88;;;29.90;28.40;;;;;;5047930;28;20076;-69
2022/05/25 05:58:06;;;;;;;26.48;3.28;;;29.90;28.40;;;;;;5029814;28;20623;-66
2022/05/25 06:00:32;;;;;;;18.95;3.00;;;29.90;28.40;;;;;;5014318;28;20089;-66
2022/05/25 06:02:59;;;;;;;22.13;3.03;;;29.80;28.30;;;;;;5029540;28;20084;-65
2022/05/25 06:05:26;;;;;;;34.00;4.43;;;29.80;28.80;;;;;;5030472;28;20114;-66
2022/05/25 06:07:52;;;;;;;35.10;5.60;;;29.80;28.50;;;;;;5029714;28;20079;-67
2022/05/25 06:10:19;;;;;;;37.67;6.25;;;29.80;28.70;;;;;;5014406;28;20111;-66
2022/05/25 06:12:47;;;;;;;34.03;6.38;;;29.70;28.80;;;;;;5029333;28;20105;-67
2022/05/25 06:20:50;;;;;;;29.45;5.10;;;29.70;29.20;;;;;;5048073;28;20465;-66
2022/05/25 06:23:17;;;;;;;31.77;3.65;;;29.60;29.40;;;;;;5046459;28;20087;-67
2022/05/25 06:25:43;;;;;;;13.60;3.50;;;29.50;29.80;;;;;;5030526;28;20099;-66
2022/05/25 06:28:09;;;;;;;25.27;4.18;;;29.50;29.80;;;;;;5029899;28;20171;-66
2022/05/25 06:30:36;;;;;;;27.05;3.95;;;29.50;30.00;;;;;;5030042;28;20084;-66
2022/05/25 06:33:05;;;;;;;28.98;3.75;;;29.40;29.90;;;;;;5031302;28;20143;-67
2022/05/25 06:35:34;;;;;;;21.88;4.20;;;29.30;30.20;;;;;;5046854;28;20073;-66
2022/05/25 06:38:01;;;;;;;22.13;3.45;;;29.30;30.10;;;;;;5030533;28;20088;-67
2022/05/25 06:40:27;;;;;;;23.08;4.68;;;29.20;30.40;;;;;;5048195;28;21458;-67
2022/05/25 06:42:54;;;;;;;20.67;4.40;;;29.10;30.60;;;;;;5047296;28;20158;-65
2022/05/25 06:45:20;;;;;;;19.15;4.70;;;29.10;30.60;;;;;;5035189;28;20875;-66
2022/05/25 06:47:46;;;;;;;22.65;5.20;;;29.10;30.80;;;;;;5033645;28;20069;-67
2022/05/25 06:50:13;;;;;;;24.80;4.95;;;29.00;30.80;;;;;;5031100;28;20442;-67
2022/05/25 06:52:40;;;;;;;31.17;5.70;;;29.00;31.10;;;;;;5031323;28;20095;-67
2022/05/25 06:55:07;;;;;;;25.23;4.82;;;29.00;31.70;;;;;;5036143;28;20074;-66
2022/05/25 06:57:34;;;;;;;25.60;4.88;;;29.00;31.80;;;;;;5054390;28;20068;-66
2022/05/25 07:00:09;;;;;;;19.10;4.40;;;28.90;31.50;;;;;;5032736;28;20478;-66
2022/05/25 07:02:36;;;;;;;27.63;4.77;;;28.80;31.50;;;;;;5049632;28;20106;-66
2022/05/25 07:05:02;;;;;;;30.85;4.82;;;28.80;32.00;;;;;;5042349;28;20068;-66
2022/05/25 07:07:38;;;;;;;29.70;4.40;;;28.70;32.10;;;;;;5036111;28;20073;-66
2022/05/25 07:10:06;;;;;;;21.45;4.53;;;28.60;32.10;;;;;;5034129;28;20112;-65
2022/05/25 07:12:32;;;;;;;28.92;4.45;;;28.60;32.10;;;;;;5037907;28;20072;-68
2022/05/25 07:14:58;;;;;;;22.63;3.67;;;28.60;32.70;;;;;;5017535;28;20071;-66
2022/05/25 07:17:25;;;;;;;34.15;4.60;;;28.50;32.60;;;;;;5052975;28;20425;-67
2022/05/25 07:19:51;;;;;;;24.83;4.88;;;28.40;32.70;;;;;;5021020;28;20130;-66
2022/05/25 07:22:18;;;;;;;18.27;4.07;;;28.40;32.90;;;;;;5035373;28;20088;-67
2022/05/25 07:24:44;;;;;;;18.75;3.97;;;28.30;33.20;;;;;;5052892;28;20096;-67
2022/05/25 07:27:10;;;;;;;17.45;3.65;;;28.30;33.30;;;;;;5050438;28;20065;-66
2022/05/25 07:29:37;;;;;;;21.30;3.97;;;28.30;33.40;;;;;;5051579;28;20069;-64
2022/05/25 07:32:06;;;;;;;26.08;4.05;;;28.10;33.50;;;;;;5033816;28;20082;-66
2022/05/25 07:34:40;;;;;;;15.63;3.28;;;28.10;34.10;;;;;;5036963;28;20080;-65
2022/05/25 07:37:12;;;;;;;20.88;4.40;;;28.10;34.40;;;;;;5018058;28;20076;-65
2022/05/25 07:39:48;;;;;;;19.92;4.05;;;28.10;34.40;;;;;;5050049;28;20457;-66
2022/05/25 07:42:17;;;;;;;21.67;4.68;;;28.10;34.70;;;;;;5031256;28;20088;-66
2022/05/25 07:44:48;;;;;;;26.17;4.85;;;27.90;34.70;;;;;;5033172;28;20081;-66
2022/05/25 07:47:14;;;;;;;21.48;3.97;;;27.80;35.10;;;;;;5050841;28;20069;-65
2022/05/25 07:49:41;;;;;;;24.15;4.15;;;27.70;35.30;;;;;;5031311;28;20072;-68
2022/05/25 07:52:08;;;;;;;23.27;4.28;;;27.70;35.80;;;;;;5051179;28;20579;-66
2022/05/25 07:54:35;;;;;;;17.88;3.80;;;27.70;36.80;;;;;;5014846;28;20529;-66
2022/05/25 07:57:01;;;;;;;20.52;4.20;;;27.70;36.10;;;;;;5032358;28;20080;-66
2022/05/25 07:59:28;;;;;;;24.33;4.13;;;27.60;36.40;;;;;;5031376;28;20079;-66
2022/05/25 08:07:33;;;;;;;28.50;5.13;;;27.40;36.70;;;;;;5035421;28;20063;-66
2022/05/25 08:10:22;;;;;;;25.52;4.50;;;27.40;37.40;;;;;;5038484;28;20130;-68
2022/05/25 08:12:51;;;;;;;30.52;4.47;;;27.30;37.70;;;;;;5049949;28;20083;-66
2022/05/25 08:15:18;;;;;;;22.98;4.65;;;27.30;37.40;;;;;;5030861;28;20073;-68
2022/05/25 08:17:45;;;;;;;23.60;4.82;;;27.20;38.20;;;;;;5049633;28;20072;-67
2022/05/25 08:20:12;;;;;;;32.45;4.60;;;27.10;37.90;;;;;;5032503;28;20074;-67
2022/05/25 08:22:39;;;;;;;25.15;4.22;;;27.00;38.00;;;;;;5033088;28;20117;-67
2022/05/25 08:25:08;;;;;;;26.98;5.45;;;27.00;38.30;;;;;;5031909;28;20906;-67
2022/05/25 08:27:38;;;;;;;33.50;4.85;;;27.00;38.30;;;;;;5048930;28;20072;-67
2022/05/25 08:30:12;;;;;;;27.13;5.22;;;26.90;37.90;;;;;;5029764;28;20081;-66
2022/05/25 08:32:38;;;;;;;22.08;4.43;;;26.90;38.20;;;;;;5046070;28;20480;-66
2022/05/25 08:35:05;;;;;;;33.40;5.03;;;26.90;38.40;;;;;;5030992;28;20072;-67
2022/05/25 08:37:32;;;;;;;31.27;4.40;;;26.80;38.40;;;;;;5031548;28;20121;-66
2022/05/25 08:39:58;;;;;;;27.10;4.97;;;26.90;39.20;;;;;;5030474;28;20072;-66
2022/05/25 08:42:29;;;;;;;22.60;4.78;;;26.80;39.20;;;;;;5049517;28;20480;-66
2022/05/25 08:44:56;;;;;;;21.70;4.25;;;26.80;39.30;;;;;;5013912;28;20075;-66
2022/05/25 08:47:24;;;;;;;20.52;4.13;;;26.70;39.20;;;;;;5014264;28;20072;-66
2022/05/25 08:49:51;;;;;;;35.05;5.57;;;26.70;38.90;;;;;;5049999;28;20084;-66
2022/05/25 08:52:33;;;;;;;17.60;4.00;;;26.70;39.40;;;;;;5010796;28;20518;-66
2022/05/25 08:55:01;;;;;;;20.58;5.38;;;26.70;39.30;;;;;;5013041;28;20103;-66
2022/05/25 08:57:33;;;;;;;20.77;5.93;;;26.50;39.20;;;;;;5048101;28;20088;-66
2022/05/25 09:00:06;;;;;;;25.95;5.93;;;26.40;39.40;;;;;;5030191;28;20088;-66
2022/05/25 09:03:01;;;;;;;12.68;4.88;;;26.40;39.60;;;;;;5048738;28;20138;-67
2022/05/25 09:05:38;;;;;;;16.83;4.70;;;26.30;39.90;;;;;;5045246;28;20164;-66
2022/05/25 09:08:29;;;;;;;22.33;5.00;;;26.20;40.70;;;;;;5015026;28;20071;-67
2022/05/25 09:11:18;;;;;;;20.25;4.40;;;26.30;41.10;;;;;;5049400;28;20115;-67
2022/05/25 09:13:58;;;;;;;17.85;5.50;;;26.30;40.50;;;;;;5027825;28;20555;-67
2022/05/25 09:16:28;;;;;;;19.60;5.40;;;26.20;41.10;;;;;;5036080;28;20076;-67
2022/05/25 09:19:17;;;;;;;16.88;5.70;;;26.20;41.10;;;;;;5031020;28;20088;-66
2022/05/25 09:21:54;;;;;;;20.15;5.78;;;26.20;41.90;;;;;;5015994;28;20103;-66
2022/05/25 09:24:23;;;;;;;18.23;5.15;;;26.20;41.80;;;;;;5032509;28;20462;-65
2022/05/25 09:26:50;;;;;;;14.05;3.75;;;25.90;42.00;;;;;;5034160;28;20087;-66
2022/05/25 09:29:18;;;;;;;17.95;3.78;;;25.70;43.40;;;;;;5030506;28;20113;-66
2022/05/25 09:31:53;;;;;;;13.77;4.15;;;25.50;44.90;;;;;;5047161;28;20598;-66
2022/05/25 09:34:38;;;;;;;21.05;4.68;;;25.30;46.00;;;;;;5048924;28;20664;-67
2022/05/25 09:37:25;;;;;;;21.75;4.82;;;25.40;48.00;;;;;;5030971;28;20076;-66
2022/05/25 09:39:53;;;;;;;13.20;3.90;;;25.20;49.00;;;;;;5030149;28;20076;-66
2022/05/25 09:42:21;;;;;;;16.25;3.50;;;25.10;50.60;;;;;;5031096;28;20201;-66
2022/05/25 09:44:56;;;;;;;12.75;3.25;;;24.90;52.00;;;;;;5019993;28;20433;-67
2022/05/25 09:47:41;;;;;;;14.35;3.53;;;24.80;52.90;;;;;;5047825;28;20639;-66
2022/05/25 09:50:25;;;;;;;18.75;3.20;;;24.60;54.10;;;;;;5028834;28;20082;-67
2022/05/25 09:52:53;;;;;;;13.40;3.50;;;24.70;54.30;;;;;;5029892;28;20107;-66
2022/05/25 09:55:29;;;;;;;20.33;3.90;;;24.50;55.00;;;;;;5031028;28;20097;-67
2022/05/25 09:57:59;;;;;;;15.73;3.47;;;24.30;56.00;;;;;;5030375;28;20084;-66
2022/05/25 10:00:41;;;;;;;18.17;4.68;;;24.30;56.30;;;;;;5013505;28;20126;-67
2022/05/25 10:03:23;;;;;;;28.98;4.47;;;24.20;56.80;;;;;;5047499;28;20108;-66
2022/05/25 10:05:56;;;;;;;16.83;4.20;;;24.20;57.50;;;;;;5047720;28;20168;-66
2022/05/25 10:08:37;;;;;;;14.00;4.53;;;24.20;57.90;;;;;;5034537;28;20599;-66
2022/05/25 10:11:29;;;;;;;18.90;5.32;;;24.10;58.70;;;;;;5054286;28;20084;-66
2022/05/25 10:14:25;;;;;;;17.42;4.68;;;24.00;59.60;;;;;;5028639;28;20080;-67
2022/05/25 10:16:54;;;;;;;20.35;5.03;;;23.90;60.30;;;;;;5031551;28;20159;-67
2022/05/25 10:19:22;;;;;;;19.33;4.93;;;23.90;60.70;;;;;;5035001;28;20073;-65
2022/05/25 10:21:54;;;;;;;16.70;4.60;;;23.90;60.90;;;;;;5028562;28;20095;-66
2022/05/25 10:24:26;;;;;;;17.02;5.20;;;23.70;61.70;;;;;;5047105;28;21501;-65
2022/05/25 10:26:56;;;;;;;24.63;5.20;;;23.70;62.30;;;;;;5046483;28;20080;-67
2022/05/25 10:38:20;;;;;;;18.25;4.57;;;23.60;65.10;;;;;;5048049;28;20425;-67
2022/05/25 10:40:47;;;;;;;20.85;5.07;;;23.60;66.00;;;;;;5016396;28;21397;-66
2022/05/25 10:43:23;;;;;;;20.20;4.60;;;23.60;66.50;;;;;;5051568;28;20138;-67
2022/05/25 10:45:53;;;;;;;16.33;4.70;;;23.40;67.60;;;;;;5052560;28;20527;-66
2022/05/25 10:48:40;;;;;;;23.42;4.65;;;23.50;68.30;;;;;;5034932;28;20075;-66
2022/05/25 10:51:15;;;;;;;14.68;4.55;;;23.50;68.80;;;;;;5032576;28;20541;-66
2022/05/25 10:57:06;;;;;;;17.70;4.20;;;23.50;70.20;;;;;;5052460;28;20075;-67
2022/05/25 11:00:00;;;;;;;21.77;4.75;;;23.40;71.50;;;;;;5032621;28;20554;-68
2022/05/25 11:03:04;;;;;;;16.38;4.82;;;23.30;73.30;;;;;;5050015;28;20095;-67
2022/05/25 11:05:52;;;;;;;16.40;4.55;;;23.30;74.60;;;;;;5050139;28;20064;-69
2022/05/25 11:08:43;;;;;;;15.73;4.80;;;23.20;76.00;;;;;;5050796;28;20072;-67
2022/05/25 11:11:38;;;;;;;18.58;4.70;;;23.30;77.30;;;;;;5032945;28;20500;-67
2022/05/25 11:14:23;;;;;;;38.30;5.20;;;22.90;78.90;;;;;;4998945;28;20583;-66
2022/05/25 11:17:23;;;;;;;15.82;3.78;;;23.00;80.10;;;;;;5033771;28;20518;-67
2022/05/25 11:20:24;;;;;;;12.90;4.05;;;22.90;80.90;;;;;;5009617;28;20581;-67
2022/05/25 11:23:15;;;;;;;13.45;4.20;;;22.90;81.90;;;;;;5032468;28;20652;-67
2022/05/25 11:26:01;;;;;;;14.27;4.45;;;23.00;82.20;;;;;;5032020;28;20562;-66
2022/05/25 11:28:45;;;;;;;14.47;4.10;;;22.90;83.00;;;;;;5048587;28;20180;-67
2022/05/25 11:31:33;;;;;;;15.15;3.78;;;23.10;83.40;;;;;;5036986;28;20501;-66
2022/05/25 11:34:11;;;;;;;15.00;3.80;;;23.10;83.70;;;;;;5031974;28;20087;-67
2022/05/25 11:37:02;;;;;;;16.05;3.67;;;23.20;84.50;;;;;;5032267;28;20068;-66
2022/05/25 11:39:43;;;;;;;12.15;3.58;;;23.00;84.80;;;;;;5028410;28;20134;-67
2022/05/25 11:42:44;;;;;;;18.25;4.30;;;22.90;86.50;;;;;;5045927;28;20093;-66
2022/05/25 11:45:26;;;;;;;14.77;3.55;;;22.90;87.70;;;;;;5048967;28;20076;-66
2022/05/25 11:48:20;;;;;;;15.63;3.92;;;22.90;87.40;;;;;;5049371;28;20088;-66
2022/05/25 11:51:04;;;;;;;14.38;4.13;;;22.90;88.10;;;;;;5047344;28;20092;-67
2022/05/25 11:53:56;;;;;;;15.82;3.70;;;22.90;88.40;;;;;;5016855;28;20450;-66
2022/05/25 11:56:47;;;;;;;16.60;4.35;;;22.90;88.60;;;;;;5016301;28;20077;-66
2022/05/25 11:59:44;;;;;;;17.95;4.95;;;22.80;89.00;;;;;;5031084;28;20080;-66
2022/05/25 12:02:27;;;;;;;13.77;3.97;;;22.80;89.30;;;;;;5050661;28;20887;-66
2022/05/25 12:05:21;;;;;;;18.90;4.15;;;22.80;88.80;;;;;;5050516;28;20070;-68
2022/05/25 12:08:14;;;;;;;14.23;3.70;;;22.70;89.30;;;;;;5052875;28;20087;-68
2022/05/25 12:10:43;;;;;;;17.52;4.43;;;22.70;90.20;;;;;;5020669;28;20167;-66
2022/05/25 12:13:09;;;;;;;19.63;4.07;;;22.70;89.80;;;;;;5049221;28;20492;-67
2022/05/25 12:15:42;;;;;;;18.50;3.65;;;22.70;89.90;;;;;;5056239;28;20118;-66
2022/05/25 12:18:37;;;;;;;12.88;3.70;;;22.70;90.10;;;;;;5032071;28;20080;-66
2022/05/25 12:21:13;;;;;;;13.93;3.88;;;22.60;90.10;;;;;;5050342;28;20076;-66
2022/05/25 12:24:05;;;;;;;18.77;4.15;;;22.70;90.10;;;;;;5048976;28;20562;-69
2022/05/25 12:26:34;;;;;;;16.27;3.67;;;22.70;90.10;;;;;;5025723;28;20087;-65
2022/05/25 12:29:30;;;;;;;15.50;3.83;;;22.70;90.00;;;;;;5049274;28;20112;-68
2022/05/25 12:31:57;;;;;;;17.17;4.10;;;22.60;90.10;;;;;;5048404;28;20076;-68
2022/05/25 12:34:51;;;;;;;14.45;4.50;;;22.40;90.50;;;;;;5031497;28;20077;-67
2022/05/25 12:37:28;;;;;;;21.00;4.38;;;22.50;90.50;;;;;;5029631;28;20080;-68
2022/05/25 12:40:02;;;;;;;19.38;4.53;;;22.40;90.50;;;;;;5031208;28;21381;-67
2022/05/25 12:42:28;;;;;;;26.80;4.60;;;22.50;90.40;;;;;;5050076;28;20488;-68
2022/05/25 12:50:55;;;;;;;20.67;5.90;;;22.20;90.90;;;;;;5048573;28;20168;-65
2022/05/25 12:53:29;;;;;;;24.30;5.28;;;22.20;91.10;;;;;;5031572;28;20174;-67
2022/05/25 12:56:19;;;;;;;16.88;4.22;;;22.30;91.20;;;;;;5031457;28;20549;-67
2022/05/25 12:58:51;;;;;;;15.27;4.65;;;22.10;90.90;;;;;;5048984;28;20596;-66
2022/05/25 13:01:23;;;;;;;16.80;4.10;;;22.00;90.90;;;;;;5031206;28;20431;-66
2022/05/25 13:03:49;;;;;;;19.38;4.15;;;22.10;90.60;;;;;;5030710;28;20072;-66
2022/05/25 13:06:17;;;;;;;15.88;4.13;;;22.00;90.20;;;;;;5031623;28;20093;-66
2022/05/25 13:08:46;;;;;;;18.52;4.40;;;22.00;89.20;;;;;;5048124;28;20505;-67
2022/05/25 13:11:48;;;;;;;19.17;4.68;;;22.00;88.40;;;;;;5030834;28;20084;-67
2022/05/25 13:14:18;;;;;;;24.50;4.90;;;22.00;88.10;;;;;;5030598;28;20069;-67
2022/05/25 13:16:51;;;;;;;25.88;4.40;;;22.10;88.50;;;;;;5051929;28;20081;-67
2022/05/25 13:19:34;;;;;;;20.40;3.53;;;22.10;88.40;;;;;;5031400;28;20112;-65
2022/05/25 13:22:13;;;;;;;15.30;3.83;;;22.00;87.90;;;;;;5029840;28;20080;-67
2022/05/25 13:24:58;;;;;;;19.13;4.38;;;22.00;87.40;;;;;;5030081;28;20548;-67
2022/05/25 13:27:33;;;;;;;23.00;4.38;;;22.00;87.80;;;;;;5047748;28;20080;-66
2022/05/25 13:30:02;;;;;;;26.70;4.47;;;22.10;88.00;;;;;;5030925;28;20079;-66
2022/05/25 13:32:35;;;;;;;24.98;4.60;;;22.10;86.90;;;;;;5027723;28;20090;-66
2022/05/25 13:35:19;;;;;;;17.13;4.22;;;22.10;86.70;;;;;;5047972;28;20649;-68
2022/05/25 13:37:53;;;;;;;30.45;9.75;;;22.10;86.10;;;;;;5032132;28;20130;-66
2022/05/25 13:40:25;;;;;;;77.20;35.20;;;22.10;85.90;;;;;;5031073;28;20077;-68
2022/05/25 13:42:53;;;;;;;89.07;37.47;;;22.10;86.10;;;;;;5030043;28;20092;-69
2022/05/25 13:45:26;;;;;;;60.42;25.48;;;22.20;86.10;;;;;;5030107;28;20081;-67
2022/05/25 13:47:58;;;;;;;39.85;14.98;;;22.20;85.80;;;;;;5030660;28;20103;-68
2022/05/25 13:50:32;;;;;;;27.98;6.93;;;22.30;85.60;;;;;;5032480;28;20078;-67